Time;durP1;ratioP1;P1;durP2;ratioP2;P2;SDS_P1;SDS_P2;PMS_P1;PMS_P2;Temp;Humidity;BMP_temperature;BMP_pressure;BME280_temperature;BME280_humidity;BME280_pressure;Samples;Min_cycle;Max_cycle;Signal;HPM_P1;HPM_P2
2022/07/13 00:00:59;;;;;;;;;;;24.40;84.50;;;;;;4982122;28;20474;-77
2022/07/13 00:03:28;;;;;;;;;;;24.40;84.90;;;;;;4954272;29;19926;-79
2022/07/13 00:05:56;;;;;;;;;;;24.40;84.80;;;;;;4975924;28;19926;-77
2022/07/13 00:08:24;;;;;;;;;;;23.60;84.40;;;;;;4982266;28;19942;-75
2022/07/13 00:10:52;;;;;;;;;;;24.30;84.70;;;;;;4962637;29;19930;-78
2022/07/13 00:13:20;;;;;;;;;;;24.30;85.10;;;;;;4949313;29;19926;-77
2022/07/13 00:15:48;;;;;;;;;;;24.30;85.10;;;;;;4966631;28;19926;-77
2022/07/13 00:18:15;;;;;;;;;;;24.30;85.70;;;;;;4966904;28;19927;-77
2022/07/13 00:20:45;;;;;;;;;;;24.20;86.00;;;;;;4966971;29;19935;-75
2022/07/13 00:23:14;;;;;;;;;;;24.20;85.60;;;;;;4966468;28;19945;-77
2022/07/13 00:25:42;;;;;;;;;;;24.20;85.60;;;;;;4947544;28;20256;-78
2022/07/13 00:28:10;;;;;;;;;;;24.20;85.50;;;;;;4965299;28;19933;-76
2022/07/13 00:30:38;;;;;;;;;;;24.20;86.50;;;;;;4953831;28;19927;-75
2022/07/13 00:33:10;;;;;;;;;;;24.20;86.00;;;;;;4973728;28;19936;-77
2022/07/13 00:35:41;;;;;;;;;;;24.20;85.90;;;;;;4979160;28;19934;-79
2022/07/13 00:38:09;;;;;;;;;;;24.20;86.30;;;;;;4950249;29;19927;-76
2022/07/13 00:40:40;;;;;;;;;;;24.20;86.30;;;;;;4966981;28;19938;-78
2022/07/13 00:43:08;;;;;;;;;;;24.20;86.10;;;;;;4953612;29;19937;-78
2022/07/13 00:45:36;;;;;;;;;;;24.20;86.70;;;;;;4966216;29;19927;-78
2022/07/13 00:48:05;;;;;;;;;;;24.10;86.40;;;;;;4950200;29;19930;-78
2022/07/13 00:50:33;;;;;;;;;;;24.10;86.60;;;;;;4966264;28;19926;-78
2022/07/13 00:53:01;;;;;;;;;;;24.00;87.10;;;;;;4950311;28;19926;-79
2022/07/13 00:55:32;;;;;;;;;;;23.90;86.80;;;;;;4950572;29;19933;-77
2022/07/13 00:58:00;;;;;;;;;;;23.90;86.90;;;;;;4958749;29;20006;-80
2022/07/13 01:00:27;;;;;;;;;;;23.80;87.10;;;;;;4965398;28;19933;-77
2022/07/13 01:02:57;;;;;;;;;;;23.80;87.10;;;;;;4965106;28;19938;-79
2022/07/13 01:05:26;;;;;;;;;;;23.80;87.00;;;;;;4946634;29;19927;-79
2022/07/13 01:07:54;;;;;;;;;;;23.60;87.10;;;;;;4949971;29;19934;-79
2022/07/13 01:10:22;;;;;;;;;;;23.70;87.40;;;;;;4949298;29;19936;-79
2022/07/13 01:12:52;;;;;;;;;;;23.70;87.20;;;;;;4629101;28;10000251;-80
2022/07/13 01:15:21;;;;;;;;;;;23.70;87.90;;;;;;4968276;28;19933;-78
2022/07/13 01:17:48;;;;;;;;;;;23.70;87.20;;;;;;4938611;29;19937;-79
2022/07/13 01:20:17;;;;;;;;;;;23.70;87.40;;;;;;4953726;28;19932;-79
2022/07/13 01:22:45;;;;;;;;;;;23.70;87.40;;;;;;4947183;29;19926;-77
2022/07/13 01:25:15;;;;;;;;;;;23.70;87.20;;;;;;4979192;28;19926;-78
2022/07/13 01:27:44;;;;;;;;;;;23.70;87.50;;;;;;4951992;29;19926;-79
2022/07/13 01:30:13;;;;;;;;;;;23.70;87.30;;;;;;4980408;28;19941;-79
2022/07/13 01:32:51;;;;;;;;;;;23.70;87.10;;;;;;4949310;29;19927;-77
2022/07/13 01:35:21;;;;;;;;;;;23.70;87.10;;;;;;4948643;29;19937;-82
2022/07/13 01:37:49;;;;;;;;;;;23.70;87.20;;;;;;4965234;29;20014;-80
2022/07/13 01:40:18;;;;;;;;;;;24.90;87.90;;;;;;4968560;28;19926;-80
2022/07/13 01:42:47;;;;;;;;;;;23.70;87.60;;;;;;4982260;28;19927;-80
2022/07/13 01:45:24;;;;;;;;;;;23.70;87.60;;;;;;4949326;29;19930;-79
2022/07/13 01:47:54;;;;;;;;;;;23.70;87.40;;;;;;4954265;29;19931;-80
2022/07/13 01:50:26;;;;;;;;;;;23.70;87.40;;;;;;4973864;28;19933;-81
2022/07/13 01:52:54;;;;;;;;;;;23.70;87.70;;;;;;4970119;28;19937;-79
2022/07/13 01:55:23;;;;;;;;;;;23.70;87.40;;;;;;4980183;28;20037;-78
2022/07/13 01:57:58;;;;;;;;;;;23.70;87.40;;;;;;4966629;28;19927;-80
2022/07/13 02:00:27;;;;;;;;;;;23.60;87.00;;;;;;4971036;28;19926;-79
2022/07/13 02:02:55;;;;;;;;;;;23.60;87.00;;;;;;4954710;29;19942;-79
2022/07/13 02:05:26;;;;;;;;;;;23.60;87.10;;;;;;4983552;28;19953;-80
2022/07/13 02:07:54;;;;;;;;;;;23.60;87.20;;;;;;4955281;29;19934;-79
2022/07/13 02:10:38;;;;;;;;;;;23.60;87.30;;;;;;4986332;28;19927;-81
2022/07/13 02:13:08;;;;;;;;;;;23.60;87.10;;;;;;4954349;29;19933;-80
2022/07/13 02:15:37;;;;;;;;;;;23.60;87.20;;;;;;4959931;28;19927;-79
2022/07/13 02:18:05;;;;;;;;;;;23.60;87.20;;;;;;4952351;29;20435;-79
2022/07/13 02:20:34;;;;;;;;;;;23.60;86.80;;;;;;4969283;28;19926;-79
2022/07/13 02:23:02;;;;;;;;;;;23.60;86.40;;;;;;4949037;29;19934;-80
2022/07/13 02:25:32;;;;;;;;;;;23.60;86.30;;;;;;4971160;28;19927;-78
2022/07/13 02:28:00;;;;;;;;;;;23.60;86.50;;;;;;4968059;28;19926;-79
2022/07/13 02:30:30;;;;;;;;;;;23.50;86.40;;;;;;4969369;28;19937;-79
2022/07/13 02:32:58;;;;;;;;;;;23.50;86.30;;;;;;4969457;29;19931;-79
2022/07/13 02:35:26;;;;;;;;;;;23.50;86.30;;;;;;4983902;28;19926;-78
2022/07/13 02:37:55;;;;;;;;;;;23.50;86.30;;;;;;4957148;28;19944;-79
2022/07/13 02:40:23;;;;;;;;;;;23.50;86.10;;;;;;4972562;28;19930;-77
2022/07/13 02:42:52;;;;;;;;;;;23.50;86.40;;;;;;4954186;29;19927;-80
2022/07/13 02:45:20;;;;;;;;;;;23.50;85.80;;;;;;4969319;29;19930;-80
2022/07/13 02:47:49;;;;;;;;;;;24.40;86.30;;;;;;4970718;28;19930;-79
2022/07/13 02:50:17;;;;;;;;;;;23.50;85.60;;;;;;4957999;28;19933;-79
2022/07/13 02:52:46;;;;;;;;;;;23.50;85.40;;;;;;4970637;28;19926;-79
2022/07/13 02:55:14;;;;;;;;;;;23.50;85.60;;;;;;4973838;28;19954;-79
2022/07/13 02:57:43;;;;;;;;;;;23.50;85.30;;;;;;4979009;28;19937;-79
2022/07/13 03:00:11;;;;;;;;;;;23.50;85.30;;;;;;4971954;28;19926;-81
2022/07/13 03:02:40;;;;;;;;;;;23.50;85.10;;;;;;4957023;29;19943;-81
2022/07/13 03:05:12;;;;;;;;;;;23.50;84.90;;;;;;4965367;28;19937;-79
2022/07/13 03:07:40;;;;;;;;;;;23.50;84.50;;;;;;4976599;28;19926;-77
2022/07/13 03:10:08;;;;;;;;;;;23.50;84.40;;;;;;4973583;28;20052;-79
2022/07/13 03:12:40;;;;;;;;;;;23.50;84.30;;;;;;4953021;29;19927;-77
2022/07/13 03:15:09;;;;;;;;;;;23.90;84.40;;;;;;4963706;28;19954;-78
2022/07/13 03:17:40;;;;;;;;;;;23.50;84.20;;;;;;4940744;29;20423;-79
2022/07/13 03:20:11;;;;;;;;;;;23.50;84.10;;;;;;4959823;29;19927;-80
2022/07/13 03:22:40;;;;;;;;;;;23.50;84.00;;;;;;4951189;29;19933;-81
2022/07/13 03:25:10;;;;;;;;;;;23.50;84.00;;;;;;4950052;29;19930;-79
2022/07/13 03:27:46;;;;;;;;;;;23.50;83.60;;;;;;4939901;29;19927;-79
2022/07/13 03:30:14;;;;;;;;;;;23.50;83.80;;;;;;4963504;29;19930;-78
2022/07/13 03:32:43;;;;;;;;;;;23.50;84.30;;;;;;4969727;29;20569;-79
2022/07/13 03:35:11;;;;;;;;;;;23.50;84.20;;;;;;4938038;28;19941;-80
2022/07/13 03:37:39;;;;;;;;;;;23.40;84.50;;;;;;4962307;29;19926;-80
2022/07/13 03:40:08;;;;;;;;;;;23.40;84.40;;;;;;4969062;28;19937;-79
2022/07/13 03:42:37;;;;;;;;;;;23.30;84.40;;;;;;4981630;28;19932;-79
2022/07/13 03:45:06;;;;;;;;;;;23.40;85.00;;;;;;4960920;29;19927;-79
2022/07/13 03:47:35;;;;;;;;;;;23.30;84.90;;;;;;4966181;28;19999;-80
2022/07/13 03:50:03;;;;;;;;;;;23.40;84.70;;;;;;4970605;28;20313;-79
2022/07/13 03:52:30;;;;;;;;;;;23.30;84.60;;;;;;4959808;29;20035;-80
2022/07/13 03:54:59;;;;;;;;;;;23.30;84.20;;;;;;4969893;29;19927;-79
2022/07/13 03:57:28;;;;;;;;;;;23.30;83.70;;;;;;4940443;29;19938;-81
2022/07/13 03:59:58;;;;;;;;;;;23.30;83.60;;;;;;4959216;28;19933;-79
2022/07/13 04:02:26;;;;;;;;;;;23.30;82.70;;;;;;4976194;28;19933;-80
2022/07/13 04:04:55;;;;;;;;;;;23.30;81.50;;;;;;4976320;28;19937;-81
2022/07/13 04:07:24;;;;;;;;;;;23.40;81.00;;;;;;4966511;29;19930;-80
2022/07/13 04:09:52;;;;;;;;;;;23.40;80.40;;;;;;4921954;29;19937;-81
2022/07/13 04:12:21;;;;;;;;;;;23.30;80.30;;;;;;4953508;29;19927;-79
2022/07/13 04:14:49;;;;;;;;;;;23.30;80.20;;;;;;4953495;29;19930;-79
2022/07/13 04:17:17;;;;;;;;;;;23.30;80.10;;;;;;4939144;29;19963;-79
2022/07/13 04:19:47;;;;;;;;;;;23.30;83.20;;;;;;4959398;28;19930;-79
2022/07/13 04:22:15;;;;;;;;;;;23.30;84.10;;;;;;4952848;28;19937;-79
2022/07/13 04:24:45;;;;;;;;;;;23.30;84.30;;;;;;4958137;28;19934;-79
2022/07/13 04:27:13;;;;;;;;;;;23.20;84.00;;;;;;4969637;28;19930;-80
2022/07/13 04:29:41;;;;;;;;;;;23.20;83.30;;;;;;4951673;29;19933;-79
2022/07/13 04:32:10;;;;;;;;;;;23.20;81.60;;;;;;4982956;28;19930;-79
2022/07/13 04:34:38;;;;;;;;;;;23.30;80.70;;;;;;4929757;29;20003;-81
2022/07/13 04:37:07;;;;;;;;;;;23.20;80.10;;;;;;4981877;28;19941;-79
2022/07/13 04:39:38;;;;;;;;;;;23.30;79.40;;;;;;4969408;28;20424;-79
2022/07/13 04:42:07;;;;;;;;;;;23.20;79.30;;;;;;4967892;28;19927;-80
2022/07/13 04:44:35;;;;;;;;;;;23.40;79.70;;;;;;4970109;28;19926;-79
2022/07/13 04:47:07;;;;;;;;;;;23.20;79.00;;;;;;4994035;28;19945;-78
2022/07/13 04:49:37;;;;;;;;;;;23.30;79.40;;;;;;4956753;28;19934;-78
2022/07/13 04:52:05;;;;;;;;;;;23.30;79.30;;;;;;4951206;29;19930;-78
2022/07/13 04:54:37;;;;;;;;;;;23.30;79.20;;;;;;4931317;29;19937;-77
2022/07/13 04:57:05;;;;;;;;;;;23.30;79.20;;;;;;4982861;28;19932;-78
2022/07/13 04:59:33;;;;;;;;;;;23.30;79.00;;;;;;4944161;29;20022;-77
2022/07/13 05:02:01;;;;;;;;;;;23.30;79.00;;;;;;4950960;29;19930;-78
2022/07/13 05:04:30;;;;;;;;;;;23.30;79.00;;;;;;4951520;29;19934;-79
2022/07/13 05:06:59;;;;;;;;;;;23.30;79.00;;;;;;4958657;28;19930;-78
2022/07/13 05:09:28;;;;;;;;;;;23.30;78.40;;;;;;4963177;29;20007;-77
2022/07/13 05:11:56;;;;;;;;;;;23.30;78.60;;;;;;4985162;28;19933;-77
2022/07/13 05:14:24;;;;;;;;;;;23.30;78.10;;;;;;4977509;28;19933;-77
2022/07/13 05:16:54;;;;;;;;;;;23.30;78.00;;;;;;4983574;28;19927;-78
2022/07/13 05:19:23;;;;;;;;;;;23.30;77.40;;;;;;4958664;29;19930;-77
2022/07/13 05:21:52;;;;;;;;;;;23.20;76.80;;;;;;4961254;29;20397;-78
2022/07/13 05:24:20;;;;;;;;;;;23.20;77.20;;;;;;4965224;28;19937;-77
2022/07/13 05:26:51;;;;;;;;;;;23.20;77.00;;;;;;4961680;29;20277;-77
2022/07/13 05:29:19;;;;;;;;;;;23.20;77.10;;;;;;4971917;28;19941;-77
2022/07/13 05:31:48;;;;;;;;;;;23.20;77.20;;;;;;4965459;28;19926;-77
2022/07/13 05:34:18;;;;;;;;;;;23.20;77.00;;;;;;4969298;28;19941;-78
2022/07/13 05:36:48;;;;;;;;;;;23.20;76.60;;;;;;4954230;29;19927;-77
2022/07/13 05:39:17;;;;;;;;;;;23.20;77.20;;;;;;4955617;28;19940;-78
2022/07/13 05:41:45;;;;;;;;;;;23.20;77.30;;;;;;4967605;28;19933;-77
2022/07/13 05:44:14;;;;;;;;;;;23.20;77.20;;;;;;4990929;28;19946;-77
2022/07/13 05:46:42;;;;;;;;;;;23.20;77.40;;;;;;4954924;29;19933;-76
2022/07/13 05:49:11;;;;;;;;;;;21.90;76.60;;;;;;4960061;29;19933;-79
2022/07/13 05:51:40;;;;;;;;;;;23.20;77.40;;;;;;4951492;28;19930;-77
2022/07/13 05:54:09;;;;;;;;;;;23.20;76.70;;;;;;4953992;29;19930;-79
2022/07/13 05:56:57;;;;;;;;;;;23.50;77.70;;;;;;4974419;28;19949;-79
2022/07/13 05:59:26;;;;;;;;;;;23.20;77.10;;;;;;4980218;28;20365;-78
2022/07/13 06:01:54;;;;;;;;;;;23.20;77.10;;;;;;4961187;28;19929;-76
2022/07/13 06:04:22;;;;;;;;;;;23.20;77.20;;;;;;4964583;28;19937;-77
2022/07/13 06:06:51;;;;;;;;;;;23.20;77.30;;;;;;4966520;28;19937;-76
2022/07/13 06:09:19;;;;;;;;;;;23.20;77.30;;;;;;4972609;28;19931;-78
2022/07/13 06:11:47;;;;;;;;;;;22.70;77.40;;;;;;4969621;28;19926;-77
2022/07/13 06:14:15;;;;;;;;;;;23.20;77.70;;;;;;4968693;28;19933;-80
2022/07/13 06:16:44;;;;;;;;;;;23.00;78.00;;;;;;4971239;28;19930;-76
2022/07/13 06:19:12;;;;;;;;;;;23.20;78.00;;;;;;4978023;28;19946;-77
2022/07/13 06:21:41;;;;;;;;;;;23.20;78.00;;;;;;4983790;28;19933;-77
2022/07/13 06:24:09;;;;;;;;;;;23.30;78.20;;;;;;4972703;28;20531;-76
2022/07/13 06:26:37;;;;;;;;;;;23.30;78.30;;;;;;4991503;28;19930;-79
2022/07/13 06:29:08;;;;;;;;;;;23.30;78.50;;;;;;4955690;29;19933;-77
2022/07/13 06:31:36;;;;;;;;;;;23.30;78.60;;;;;;4971086;28;19933;-76
2022/07/13 06:34:05;;;;;;;;;;;23.30;78.90;;;;;;4971959;28;19941;-77
2022/07/13 06:36:34;;;;;;;;;;;23.30;79.00;;;;;;4968378;28;19934;-78
2022/07/13 06:39:02;;;;;;;;;;;23.30;79.10;;;;;;4952841;28;19952;-76
2022/07/13 06:41:30;;;;;;;;;;;23.60;79.50;;;;;;4973761;28;19926;-75
2022/07/13 06:44:00;;;;;;;;;;;23.30;79.30;;;;;;4950075;29;20358;-80
2022/07/13 06:46:28;;;;;;;;;;;23.40;79.50;;;;;;4932354;28;19935;-76
2022/07/13 06:48:56;;;;;;;;;;;23.40;79.60;;;;;;4967055;28;19927;-78
2022/07/13 06:51:24;;;;;;;;;;;23.50;79.70;;;;;;4958114;28;19931;-78
2022/07/13 06:53:53;;;;;;;;;;;23.60;79.70;;;;;;4965929;28;19966;-78
2022/07/13 06:56:21;;;;;;;;;;;24.00;79.40;;;;;;4989702;28;19937;-78
2022/07/13 06:58:49;;;;;;;;;;;23.60;79.40;;;;;;4968014;28;19927;-78
2022/07/13 07:01:19;;;;;;;;;;;23.70;79.00;;;;;;4963626;29;19931;-80
2022/07/13 07:03:47;;;;;;;;;;;23.80;78.80;;;;;;4938524;29;19931;-79
2022/07/13 07:06:14;;;;;;;;;;;23.70;79.30;;;;;;4953269;29;19933;-78
2022/07/13 07:08:42;;;;;;;;;;;23.70;79.10;;;;;;4952377;29;19933;-77
2022/07/13 07:11:11;;;;;;;;;;;23.80;78.80;;;;;;4625362;29;9999778;-80
2022/07/13 07:13:44;;;;;;;;;;;23.80;78.80;;;;;;4952329;28;19926;-76
2022/07/13 07:16:13;;;;;;;;;;;23.70;79.10;;;;;;4985025;28;20347;-77
2022/07/13 07:18:42;;;;;;;;;;;23.80;78.80;;;;;;4958258;28;19934;-78
2022/07/13 07:21:30;;;;;;;;;;;23.90;78.20;;;;;;4955372;28;19927;-76
2022/07/13 07:23:58;;;;;;;;;;;23.90;78.30;;;;;;4978170;28;20086;-79
2022/07/13 07:26:26;;;;;;;;;;;23.70;78.40;;;;;;4977228;28;19930;-79
2022/07/13 07:28:54;;;;;;;;;;;23.90;78.20;;;;;;4965433;28;19926;-77
2022/07/13 07:31:22;;;;;;;;;;;23.90;78.50;;;;;;4973445;28;19937;-79
2022/07/13 07:33:49;;;;;;;;;;;23.60;78.10;;;;;;4952382;28;19926;-78
2022/07/13 07:36:18;;;;;;;;;;;23.90;78.30;;;;;;4982489;28;19937;-76
2022/07/13 07:38:46;;;;;;;;;;;23.80;78.10;;;;;;4954400;29;19930;-77
2022/07/13 07:41:14;;;;;;;;;;;23.80;77.80;;;;;;4975617;28;19933;-78
2022/07/13 07:43:42;;;;;;;;;;;23.80;77.60;;;;;;4976659;28;19926;-78
2022/07/13 07:46:11;;;;;;;;;;;23.80;78.50;;;;;;4973464;28;19930;-77
2022/07/13 07:48:39;;;;;;;;;;;23.70;77.80;;;;;;4931380;29;19930;-78
2022/07/13 07:51:07;;;;;;;;;;;23.80;78.10;;;;;;4961131;29;19926;-78
2022/07/13 07:53:35;;;;;;;;;;;23.80;78.10;;;;;;4982491;28;19938;-79
2022/07/13 07:56:03;;;;;;;;;;;23.80;78.10;;;;;;4984169;28;19926;-78
2022/07/13 07:58:30;;;;;;;;;;;23.90;77.80;;;;;;4935187;29;19937;-75
2022/07/13 08:00:58;;;;;;;;;;;23.90;78.00;;;;;;4978534;28;19926;-78
2022/07/13 08:03:27;;;;;;;;;;;23.90;78.00;;;;;;4967969;28;19936;-77
2022/07/13 08:05:57;;;;;;;;;;;24.00;77.90;;;;;;4979790;28;19927;-78
2022/07/13 08:08:25;;;;;;;;;;;24.00;78.10;;;;;;4952897;28;19952;-77
2022/07/13 08:10:54;;;;;;;;;;;24.10;78.30;;;;;;4950353;29;19938;-79
2022/07/13 08:13:22;;;;;;;;;;;24.20;78.20;;;;;;4973416;28;19931;-77
2022/07/13 08:15:50;;;;;;;;;;;24.30;77.50;;;;;;4950201;29;19930;-77
2022/07/13 08:18:18;;;;;;;;;;;24.40;77.80;;;;;;4963017;28;19938;-78
2022/07/13 08:21:07;;;;;;;;;;;24.40;77.50;;;;;;4960492;28;19926;-76
2022/07/13 08:23:53;;;;;;;;;;;24.60;77.40;;;;;;4982990;28;19933;-76
2022/07/13 08:26:22;;;;;;;;;;;24.70;77.00;;;;;;4982302;28;19937;-79
2022/07/13 08:28:50;;;;;;;;;;;24.80;76.40;;;;;;4953992;28;19926;-78
2022/07/13 08:31:22;;;;;;;;;;;24.90;77.00;;;;;;4953624;28;20107;-77
2022/07/13 08:39:24;;;;;;;;;;;25.40;76.30;;;;;;4961332;28;19940;-78
2022/07/13 08:41:52;;;;;;;;;;;25.20;76.00;;;;;;4940070;29;19927;-78
2022/07/13 08:44:20;;;;;;;;;;;25.30;76.30;;;;;;4958133;29;19947;-77
2022/07/13 08:46:49;;;;;;;;;;;25.40;76.10;;;;;;4966211;29;19938;-77
2022/07/13 08:49:17;;;;;;;;;;;25.50;75.80;;;;;;4945493;29;19933;-78
2022/07/13 08:51:47;;;;;;;;;;;25.60;75.60;;;;;;4958063;29;19937;-77
2022/07/13 08:54:18;;;;;;;;;;;25.60;75.10;;;;;;4951148;29;19926;-78
2022/07/13 08:56:46;;;;;;;;;;;25.60;75.30;;;;;;4959256;28;19933;-80
2022/07/13 08:59:15;;;;;;;;;;;25.20;74.80;;;;;;4967468;28;20564;-78
2022/07/13 09:01:43;;;;;;;;;;;25.60;75.20;;;;;;4969970;28;19930;-81
2022/07/13 09:04:16;;;;;;;;;;;25.70;75.00;;;;;;4966262;28;19937;-77
2022/07/13 09:06:44;;;;;;;;;;;25.70;75.00;;;;;;4966354;28;19951;-76
2022/07/13 09:09:31;;;;;;;;;;;25.80;74.90;;;;;;4951530;29;19926;-78
2022/07/13 09:12:23;;;;;;;;;;;25.90;74.90;;;;;;4954717;28;19930;-78
2022/07/13 09:14:53;;;;;;;;;;;26.00;74.20;;;;;;4966616;28;19926;-78
2022/07/13 09:17:43;;;;;;;;;;;26.00;73.60;;;;;;4974641;28;19926;-77
2022/07/13 09:20:10;;;;;;;;;;;26.10;73.50;;;;;;4958960;28;19930;-78
2022/07/13 09:22:47;;;;;;;;;;;26.10;73.80;;;;;;4940202;29;19931;-77
2022/07/13 09:25:29;;;;;;;;;;;25.90;72.70;;;;;;4951047;29;19937;-77
2022/07/13 09:28:00;;;;;;;;;;;26.10;73.20;;;;;;4966270;28;19930;-79
2022/07/13 09:30:28;;;;;;;;;;;26.10;72.60;;;;;;4950708;28;19933;-79
2022/07/13 09:32:57;;;;;;;;;;;26.10;73.20;;;;;;4983983;28;20013;-77
2022/07/13 09:35:44;;;;;;;;;;;26.20;73.20;;;;;;4963986;28;19935;-78
2022/07/13 09:38:29;;;;;;;;;;;26.30;73.10;;;;;;4968023;28;19926;-80
2022/07/13 09:40:59;;;;;;;;;;;26.30;72.80;;;;;;4980392;28;19930;-78
2022/07/13 09:46:16;;;;;;;;;;;26.30;73.10;;;;;;4963696;28;19941;-78
2022/07/13 09:48:49;;;;;;;;;;;26.50;73.10;;;;;;4962518;28;20419;-78
2022/07/13 09:51:24;;;;;;;;;;;26.40;72.80;;;;;;4975637;28;20406;-78
2022/07/13 09:53:54;;;;;;;;;;;26.40;72.70;;;;;;4978848;28;19926;-77
2022/07/13 09:56:24;;;;;;;;;;;26.50;72.10;;;;;;4946033;29;19927;-77
2022/07/13 09:58:53;;;;;;;;;;;26.60;72.50;;;;;;4965610;28;19926;-77
2022/07/13 10:01:23;;;;;;;;;;;26.60;71.90;;;;;;4962392;28;19937;-80
2022/07/13 10:03:51;;;;;;;;;;;26.60;71.80;;;;;;4972251;28;19937;-78
2022/07/13 10:06:20;;;;;;;;;;;26.70;71.70;;;;;;4967374;28;19930;-79
2022/07/13 10:08:48;;;;;;;;;;;26.70;71.90;;;;;;4985608;28;20292;-77
2022/07/13 10:11:15;;;;;;;;;;;26.90;72.20;;;;;;4967829;29;19938;-79
2022/07/13 10:13:46;;;;;;;;;;;27.10;71.80;;;;;;4969149;28;19965;-79
2022/07/13 10:16:14;;;;;;;;;;;27.20;71.30;;;;;;4967619;28;19969;-79
2022/07/13 10:18:42;;;;;;;;;;;27.30;70.90;;;;;;4972968;28;19933;-77
2022/07/13 10:21:29;;;;;;;;;;;27.70;71.60;;;;;;4959117;29;19933;-77
2022/07/13 10:23:58;;;;;;;;;;;27.40;70.70;;;;;;4983782;28;19933;-77
2022/07/13 10:26:31;;;;;;;;;;;27.30;70.90;;;;;;4959487;28;19925;-78
2022/07/13 10:29:00;;;;;;;;;;;27.30;70.70;;;;;;4972693;28;19930;-79
2022/07/13 10:31:29;;;;;;;;;;;27.30;70.90;;;;;;4962025;28;19934;-79
2022/07/13 10:33:57;;;;;;;;;;;27.30;71.40;;;;;;4966042;28;19943;-81
2022/07/13 10:36:45;;;;;;;;;;;27.30;70.50;;;;;;4979132;28;19933;-77
2022/07/13 10:39:14;;;;;;;;;;;27.40;70.40;;;;;;4939925;28;19927;-76
2022/07/13 10:41:56;;;;;;;;;;;27.50;70.90;;;;;;4969780;28;19927;-79
2022/07/13 10:44:30;;;;;;;;;;;27.50;70.30;;;;;;4971082;28;19927;-77
2022/07/13 10:46:58;;;;;;;;;;;27.60;70.80;;;;;;4967008;28;19926;-77
2022/07/13 10:49:32;;;;;;;;;;;27.70;70.60;;;;;;4972953;28;19926;-77
2022/07/13 10:52:23;;;;;;;;;;;27.90;70.00;;;;;;4984916;28;19934;-77
2022/07/13 10:55:13;;;;;;;;;;;28.10;70.10;;;;;;4969734;28;19927;-77
2022/07/13 10:57:43;;;;;;;;;;;28.30;69.40;;;;;;4971488;28;19932;-78
2022/07/13 11:00:28;;;;;;;;;;;28.40;69.20;;;;;;4969882;28;20392;-78
2022/07/13 11:03:04;;;;;;;;;;;28.50;69.30;;;;;;4969366;29;19930;-78
2022/07/13 11:05:36;;;;;;;;;;;28.50;69.40;;;;;;4970094;28;20176;-77
2022/07/13 11:08:15;;;;;;;;;;;28.50;68.00;;;;;;4949435;29;19933;-77
2022/07/13 11:10:43;;;;;;;;;;;28.30;69.00;;;;;;4954560;28;20504;-78
2022/07/13 11:13:15;;;;;;;;;;;28.40;69.20;;;;;;4966241;28;19934;-79
2022/07/13 11:15:54;;;;;;;;;;;28.50;69.40;;;;;;4967847;28;19933;-78
2022/07/13 11:18:24;;;;;;;;;;;28.60;69.30;;;;;;4968467;28;19926;-79
2022/07/13 11:21:04;;;;;;;;;;;28.40;68.60;;;;;;4952646;28;19926;-79
2022/07/13 11:26:30;;;;;;;;;;;28.70;69.40;;;;;;4968423;28;19942;-78
2022/07/13 11:29:06;;;;;;;;;;;28.80;69.30;;;;;;4984495;28;19927;-77
2022/07/13 11:31:39;;;;;;;;;;;28.90;69.00;;;;;;4937101;29;19926;-77
2022/07/13 11:34:07;;;;;;;;;;;29.00;69.30;;;;;;4952425;28;19930;-78
2022/07/13 11:36:35;;;;;;;;;;;29.00;69.30;;;;;;4968761;28;19926;-78
2022/07/13 11:39:03;;;;;;;;;;;29.00;68.80;;;;;;4949659;28;19927;-78
2022/07/13 11:41:31;;;;;;;;;;;29.00;69.10;;;;;;4967723;28;19934;-83
2022/07/13 11:43:59;;;;;;;;;;;29.00;69.00;;;;;;4957581;28;19930;-78
2022/07/13 11:46:28;;;;;;;;;;;29.00;68.90;;;;;;4971029;28;19934;-78
2022/07/13 11:49:03;;;;;;;;;;;29.10;68.70;;;;;;4962711;29;19930;-78
2022/07/13 11:51:33;;;;;;;;;;;29.10;68.50;;;;;;4954716;28;19926;-77
2022/07/13 11:54:08;;;;;;;;;;;29.20;68.60;;;;;;4983884;28;19933;-79
2022/07/13 11:56:47;;;;;;;;;;;29.30;68.90;;;;;;4950897;28;19927;-78
2022/07/13 11:59:34;;;;;;;;;;;29.20;68.20;;;;;;4949145;29;19933;-78
2022/07/13 12:02:10;;;;;;;;;;;29.30;68.20;;;;;;4957646;29;19926;-79
2022/07/13 12:04:39;;;;;;;;;;;29.50;68.30;;;;;;4966791;28;19933;-78
2022/07/13 12:07:08;;;;;;;;;;;29.60;67.90;;;;;;4950791;28;19942;-78
2022/07/13 12:09:36;;;;;;;;;;;29.70;67.80;;;;;;4968458;28;19933;-78
2022/07/13 12:12:04;;;;;;;;;;;29.90;67.80;;;;;;4967616;28;19926;-79
2022/07/13 12:14:32;;;;;;;;;;;30.30;67.30;;;;;;4950170;29;19938;-78
2022/07/13 12:17:01;;;;;;;;;;;29.90;67.20;;;;;;4949857;28;19931;-80
2022/07/13 12:19:30;;;;;;;;;;;29.80;66.80;;;;;;4970965;28;19933;-81
2022/07/13 12:21:58;;;;;;;;;;;29.60;66.70;;;;;;4986335;28;19926;-79
2022/07/13 12:24:27;;;;;;;;;;;29.50;67.00;;;;;;4950989;28;19926;-78
2022/07/13 12:26:55;;;;;;;;;;;29.50;67.60;;;;;;4950287;28;19930;-77
2022/07/13 12:29:31;;;;;;;;;;;29.50;67.00;;;;;;4968572;28;19957;-79
2022/07/13 12:32:02;;;;;;;;;;;29.60;67.00;;;;;;4952423;29;19927;-80
2022/07/13 12:34:30;;;;;;;;;;;29.70;66.80;;;;;;4966896;28;19940;-81
2022/07/13 12:37:00;;;;;;;;;;;30.00;67.00;;;;;;4980929;28;19933;-80
2022/07/13 12:39:35;;;;;;;;;;;30.20;65.80;;;;;;4964488;28;19934;-79
2022/07/13 12:42:06;;;;;;;;;;;30.40;66.30;;;;;;4965278;29;19927;-80
2022/07/13 12:44:35;;;;;;;;;;;30.60;65.90;;;;;;4969092;28;19930;-78
2022/07/13 12:47:04;;;;;;;;;;;30.70;65.70;;;;;;4980548;28;19927;-79
2022/07/13 12:49:39;;;;;;;;;;;30.70;65.50;;;;;;4966311;28;19930;-80
2022/07/13 12:52:11;;;;;;;;;;;30.60;65.50;;;;;;4979865;28;19934;-81
2022/07/13 12:54:49;;;;;;;;;;;30.60;65.20;;;;;;4944918;29;19935;-80
2022/07/13 12:57:18;;;;;;;;;;;30.70;65.20;;;;;;4981410;28;19926;-80
2022/07/13 12:59:57;;;;;;;;;;;30.90;65.20;;;;;;4964982;28;19926;-80
2022/07/13 13:02:25;;;;;;;;;;;31.20;64.90;;;;;;4964006;28;20297;-80
2022/07/13 13:04:55;;;;;;;;;;;31.10;65.00;;;;;;4964082;28;19936;-80
2022/07/13 13:07:29;;;;;;;;;;;31.00;64.30;;;;;;4827730;28;10000494;-81
2022/07/13 13:09:57;;;;;;;;;;;31.20;64.90;;;;;;4966097;28;20044;-80
2022/07/13 13:12:25;;;;;;;;;;;31.40;64.80;;;;;;4972546;28;19934;-81
2022/07/13 13:14:53;;;;;;;;;;;31.50;64.20;;;;;;4966067;28;19933;-79
2022/07/13 13:17:23;;;;;;;;;;;31.60;64.00;;;;;;4965353;29;19926;-78
2022/07/13 13:19:53;;;;;;;;;;;31.70;63.30;;;;;;4965829;29;19934;-77
2022/07/13 13:22:39;;;;;;;;;;;31.70;63.20;;;;;;4966540;28;19927;-79
2022/07/13 13:25:08;;;;;;;;;;;31.80;63.30;;;;;;4965774;28;19927;-79
2022/07/13 13:27:36;;;;;;;;;;;31.90;62.80;;;;;;4986037;28;19926;-83
2022/07/13 13:33:12;;;;;;;;;;;31.90;63.20;;;;;;4965531;28;19930;-82
2022/07/13 13:35:44;;;;;;;;;;;31.80;62.40;;;;;;4942265;28;19937;-82
2022/07/13 13:38:13;;;;;;;;;;;31.70;62.30;;;;;;4976141;28;19926;-83
2022/07/13 13:40:42;;;;;;;;;;;31.70;62.50;;;;;;4981058;23;19930;-87
2022/07/13 13:43:17;;;;;;;;;;;31.90;62.50;;;;;;4984448;28;19926;-88
2022/07/13 13:45:46;;;;;;;;;;;32.20;62.00;;;;;;4986858;28;19933;-86
2022/07/13 13:48:14;;;;;;;;;;;32.70;61.90;;;;;;4987338;28;20640;-87
2022/07/13 13:50:42;;;;;;;;;;;32.90;61.00;;;;;;5003417;28;19930;-87
2022/07/13 13:53:26;;;;;;;;;;;33.20;60.90;;;;;;4998487;28;19925;-86
2022/07/13 13:55:54;;;;;;;;;;;33.40;60.50;;;;;;5003219;28;20404;-89
2022/07/13 13:58:25;;;;;;;;;;;33.20;59.70;;;;;;5006500;28;20250;-87
2022/07/13 14:00:54;;;;;;;;;;;33.60;59.90;;;;;;5008470;28;19930;-87
2022/07/13 14:03:22;;;;;;;;;;;32.70;59.30;;;;;;4972662;28;19933;-89
2022/07/13 14:05:51;;;;;;;;;;;32.40;59.30;;;;;;4965770;28;19930;-88
2022/07/13 14:08:21;;;;;;;;;;;32.20;60.00;;;;;;4988083;28;20061;-87
2022/07/13 14:10:55;;;;;;;;;;;32.20;59.80;;;;;;5010377;28;19912;-85
2022/07/13 14:13:46;;;;;;;;;;;32.50;60.00;;;;;;4986851;28;19930;-86
2022/07/13 14:16:23;;;;;;;;;;;32.70;59.30;;;;;;4979873;28;19925;-87
2022/07/13 14:18:55;;;;;;;;;;;33.00;58.80;;;;;;4989220;28;19922;-88
2022/07/13 14:21:23;;;;;;;;;;;33.30;58.20;;;;;;4984621;28;20017;-84
2022/07/13 14:23:52;;;;;;;;;;;33.40;57.40;;;;;;4997549;28;19937;-88
2022/07/13 14:26:41;;;;;;;;;;;33.50;56.90;;;;;;5000433;28;19929;-86
2022/07/13 14:29:23;;;;;;;;;;;33.70;57.40;;;;;;4974567;28;19925;-87
2022/07/13 14:31:59;;;;;;;;;;;33.90;58.40;;;;;;4999519;28;19934;-89
2022/07/13 14:34:48;;;;;;;;;;;33.90;58.10;;;;;;4966330;28;19946;-88
2022/07/13 14:37:23;;;;;;;;;;;33.90;57.50;;;;;;4982350;28;19933;-86
2022/07/13 14:39:53;;;;;;;;;;;33.70;56.90;;;;;;4965576;28;19934;-87
2022/07/13 14:42:28;;;;;;;;;;;33.50;57.40;;;;;;4959917;28;19926;-84
2022/07/13 14:45:00;;;;;;;;;;;33.30;57.40;;;;;;4983103;28;19930;-86
2022/07/13 14:47:31;;;;;;;;;;;33.20;57.40;;;;;;4982998;28;20454;-87
2022/07/13 14:50:19;;;;;;;;;;;33.20;58.30;;;;;;4971967;28;19925;-87